Logo
Newest Metar:
CYXE 240800Z 16002KT 15SM SKC 05/03 A3024 RMK SLP258

Last 10 Metars:
CYXE 240700Z 00000KT 15SM SKC 06/04 A3024 RMK SLP255
CYXE 240600Z 11006KT 15SM SKC 07/04 A3023 RMK SLP253
CYXE 240500Z 10006KT 15SM FEW250 07/05 A3022 RMK CI1 SLP249
CYXE 240400Z 09006KT 15SM FEW250 08/05 A3020 RMK CI2 SLP244
CYXE 240300Z 07008KT 15SM FEW250 11/05 A3018 RMK CI2 SLP234
CYXE 240200Z 09007KT 15SM FEW250 14/05 A3016 RMK CI2 SLP230
CYXE 240100Z 06010G16KT 15SM FEW060 15/05 A3015 RMK SC2 SLP224 DENSITY ALT 1900FT
CYXE 240000Z 05010G17KT 15SM BKN065 17/04 A3013 RMK CU5 SLP219 DENSITY ALT 2000FT
CYXE 232300Z 35018G23KT 15SM BKN070 18/01 A3012 RMK CU5 SLP214 DENSITY ALT 2200FT
CYXE 232200Z 35017G25KT 15SM BKN075 18/01 A3011 RMK CU5 SLP213 DENSITY ALT 2200FT

Click here for Regina (YQR) International Weather